Terminal Aerodrome Forecast
Issued by NWS Upton, NY

Home | Current Version | Previous Version | Text Only | Print | Product List | Glossary On
Versions: 1 2 3 4 5 6 7 8 9 10 11 12 13 14 15 16 17 18 19 20 21 22 23 24 25 26 27 28 29 30 31 32 33 34 35 36 37 38 39 40 41 42 43 44 45 46 47 48 49 50
000
FTUS41 KOKX 171725
TAFLGA
TAF
KLGA 171725Z 1718/1824 20009G16KT P6SM VCTS FEW050CB BKN250
     FM171900 19013G19KT P6SM VCTS SCT050CB BKN100
      TEMPO 1800/1804 24012G28KT 2SM +TSRA BKN025CB
     FM180400 29009KT 6SM -SHRA BKN030 OVC040
     FM180700 06006KT 5SM -SHRA BR OVC025
     FM181000 08008KT 4SM -SHRA OVC015
     FM181200 08006KT 4SM -SHRA BR OVC007
     FM181700 08008KT 4SM -SHRA BR OVC015=

USA.gov is the U.S. government's official web portal to all federal, state and local government web resources and services.